Time;durP1;ratioP1;P1;durP2;ratioP2;P2;SDS_P1;SDS_P2;PMS_P1;PMS_P2;Temp;Humidity;BMP_temperature;BMP_pressure;BME280_temperature;BME280_humidity;BME280_pressure;Samples;Min_cycle;Max_cycle;Signal;HPM_P1;HPM_P2
2022/01/19 00:01:19;;;;;;;;;1.00;1.00;;;;;2.54;89.50;101511.09;5115690;27;8852;-63
2022/01/19 00:03:47;;;;;;;;;0.80;0.80;;;;;2.49;89.86;101508.56;5134476;27;9475;-62
2022/01/19 00:06:15;;;;;;;;;0.40;0.40;;;;;2.44;89.51;101505.16;5134521;27;8838;-63
2022/01/19 00:08:42;;;;;;;;;2.60;1.00;;;;;2.40;90.06;101510.50;5134163;27;8869;-61
2022/01/19 00:11:10;;;;;;;;;1.00;1.00;;;;;2.35;89.78;101504.50;5133065;27;8868;-63
2022/01/19 00:13:38;;;;;;;;;3.00;3.00;;;;;2.29;89.75;101505.47;5112543;28;8846;-63
2022/01/19 00:16:06;;;;;;;;;0.40;0.40;;;;;2.23;90.04;101505.63;5111832;28;8843;-62
2022/01/19 00:18:34;;;;;;;;;3.00;3.00;;;;;2.20;89.32;101502.22;5113849;28;8880;-61
2022/01/19 00:21:01;;;;;;;;;3.60;3.00;;;;;2.14;89.25;101495.28;5115566;27;8847;-64
2022/01/19 00:23:29;;;;;;;;;5.20;3.60;;;;;2.10;89.84;101492.75;5136379;27;8857;-63
2022/01/19 00:25:57;;;;;;;;;4.40;4.40;;;;;2.06;89.76;101478.81;5136217;27;8868;-63
2022/01/19 00:28:25;;;;;;;;;0.20;0.20;;;;;2.04;89.69;101459.63;5135850;27;8841;-63
2022/01/19 00:30:52;;;;;;;;;4.00;3.00;;;;;2.02;89.30;101443.03;5137074;27;9274;-63
2022/01/19 00:33:20;;;;;;;;;3.00;3.00;;;;;2.00;89.61;101429.06;5117402;27;8850;-62
2022/01/19 00:35:49;;;;;;;;;3.00;3.00;;;;;1.99;89.54;101411.56;5115390;28;8843;-62
2022/01/19 00:38:16;;;;;;;;;4.80;4.00;;;;;1.95;89.49;101415.16;5115602;28;8852;-64
2022/01/19 00:40:44;;;;;;;;;2.20;1.00;;;;;1.93;89.93;101414.34;5115455;28;8847;-64
2022/01/19 00:43:13;;;;;;;;;3.00;3.00;;;;;1.92;90.22;101412.63;5133493;27;8849;-64
2022/01/19 00:45:41;;;;;;;;;3.00;3.00;;;;;1.91;89.84;101408.25;5136377;27;8841;-63
2022/01/19 00:48:25;;;;;;;;;3.20;3.20;;;;;1.89;90.21;101402.16;5136462;27;8865;-61
2022/01/19 00:50:52;;;;;;;;;1.00;1.00;;;;;1.85;90.36;101420.63;5136615;27;8972;-63
2022/01/19 00:53:20;;;;;;;;;3.00;1.40;;;;;1.79;89.48;101428.63;5117640;27;8840;-64
2022/01/19 00:55:48;;;;;;;;;3.40;3.00;;;;;1.75;89.79;101437.50;5115983;28;8848;-64
2022/01/19 00:58:15;;;;;;;;;3.80;3.80;;;;;1.75;90.00;101421.75;5116154;28;8832;-62
2022/01/19 01:00:43;;;;;;;;;6.20;5.20;;;;;1.72;89.54;101420.03;5115055;28;9617;-62
2022/01/19 01:03:11;;;;;;;;;2.20;2.20;;;;;1.69;89.90;101425.34;5131933;27;8822;-62
2022/01/19 01:05:39;;;;;;;;;6.60;5.60;;;;;1.64;89.62;101424.56;5135334;27;8956;-62
2022/01/19 01:08:07;;;;;;;;;4.00;3.80;;;;;1.59;89.84;101407.19;5135755;27;8829;-62
2022/01/19 01:10:41;;;;;;;;;4.00;3.20;;;;;1.56;89.31;101402.88;5136086;27;9688;-62
2022/01/19 01:13:22;;;;;;;;;3.00;1.40;;;;;1.52;89.88;101393.31;5120948;27;8942;-64
2022/01/19 01:16:00;;;;;;;;;1.00;1.00;;;;;1.50;89.87;101396.84;5117176;28;8840;-61
2022/01/19 01:18:28;;;;;;;;;2.60;1.00;;;;;1.47;89.98;101389.94;5117867;28;8859;-63
2022/01/19 01:20:56;;;;;;;;;3.80;3.60;;;;;1.46;89.63;101389.94;5117728;28;8843;-61
2022/01/19 01:23:24;;;;;;;;;1.80;1.80;;;;;1.46;89.85;101382.09;5135994;27;8829;-65
2022/01/19 01:25:52;;;;;;;;;3.80;3.40;;;;;1.44;89.67;101382.09;5138278;27;8838;-63
2022/01/19 01:28:19;;;;;;;;;3.00;3.00;;;;;1.42;89.22;101376.03;5137400;27;8848;-62
2022/01/19 01:30:47;;;;;;;;;3.00;3.00;;;;;1.41;89.83;101362.94;5138016;27;8845;-63
2022/01/19 01:33:14;;;;;;;;;2.20;1.40;;;;;1.38;89.60;101348.09;5120023;27;8831;-62
2022/01/19 01:35:42;;;;;;;;;6.40;1.40;;;;;1.31;90.01;101329.91;5115413;28;8865;-62
2022/01/19 01:38:10;;;;;;;;;1.00;1.00;;;;;1.23;89.58;101316.94;5115107;28;8933;-63
2022/01/19 01:40:58;;;;;;;;;1.80;1.00;;;;;1.11;89.46;101317.19;5116403;28;8867;-64
2022/01/19 01:43:26;;;;;;;;;3.00;3.00;;;;;1.06;89.80;101313.78;5135201;27;8841;-62
2022/01/19 01:46:01;;;;;;;;;3.00;1.80;;;;;1.00;89.73;101313.91;5137084;27;8842;-62
2022/01/19 01:48:28;;;;;;;;;1.00;1.00;;;;;0.97;90.27;101310.47;5135536;27;8874;-62
2022/01/19 01:53:41;;;;;;;;;1.00;1.00;;;;;0.94;89.82;101316.66;5117107;27;8846;-62
2022/01/19 01:56:10;;;;;;;;;3.20;3.00;;;;;0.94;90.58;101310.53;5116615;28;8847;-62
2022/01/19 01:58:37;;;;;;;;;5.60;5.20;;;;;0.97;90.73;101308.72;5115336;28;8863;-63
2022/01/19 02:01:05;;;;;;;;;2.40;1.80;;;;;1.00;91.12;101305.19;5115938;28;9929;-62
2022/01/19 02:03:38;;;;;;;;;3.00;1.00;;;;;1.05;91.08;101300.69;5135354;27;8862;-63
2022/01/19 02:08:56;;;;;;;;;3.20;3.00;;;;;1.05;90.12;101292.81;5126216;27;8865;-65
2022/01/19 02:15:48;;;;;;;;;3.80;3.80;;;;;1.02;89.95;101296.41;5134720;27;8858;-62
2022/01/19 02:22:34;;;;;;;;;3.00;3.00;;;;;0.86;89.88;101288.84;5123768;27;8834;-62
2022/01/19 02:25:04;;;;;;;;;3.00;3.00;;;;;0.84;90.10;101288.88;5136951;27;8829;-62
2022/01/19 02:41:28;;;;;;;;;4.00;3.40;;;;;0.83;90.73;101276.66;5134654;27;9671;-64
2022/01/19 02:43:57;;;;;;;;;3.00;3.00;;;;;0.84;90.68;101272.28;5136479;27;8842;-63
2022/01/19 02:46:40;;;;;;;;;4.00;3.00;;;;;0.84;90.61;101254.78;5135326;27;8854;-62
2022/01/19 02:49:15;;;;;;;;;3.60;3.60;;;;;0.85;90.67;101251.28;5136691;27;8885;-63
2022/01/19 02:51:43;;;;;;;;;1.80;1.00;;;;;0.87;90.53;101244.25;5133727;27;8842;-62
2022/01/19 02:54:10;;;;;;;;;2.60;1.40;;;;;0.97;90.58;101230.06;5115961;28;9571;-62
2022/01/19 02:56:40;;;;;;;;;3.80;3.60;;;;;1.11;91.03;101238.53;5111438;28;8871;-64
2022/01/19 02:59:16;;;;;;;;;3.60;2.80;;;;;1.25;90.68;101235.59;5107444;28;8869;-63
2022/01/19 03:09:59;;;;;;;;;6.60;4.00;;;;;1.84;90.79;101229.88;5127001;27;8853;-62
2022/01/19 03:12:27;;;;;;;;;6.40;6.40;;;;;1.93;90.97;101217.41;5121584;27;8850;-63
2022/01/19 03:14:55;;;;;;;;;5.20;4.40;;;;;2.04;90.67;101219.75;5110504;28;9509;-63
2022/01/19 03:17:22;;;;;;;;;1.80;1.40;;;;;2.14;90.68;101214.22;5109225;28;8832;-62
2022/01/19 03:19:50;;;;;;;;;0.40;0.40;;;;;2.24;90.12;101222.72;5110733;28;8863;-63
2022/01/19 03:22:22;;;;;;;;;4.40;4.40;;;;;2.32;89.83;101205.00;5115705;27;8825;-61
2022/01/19 03:24:52;;;;;;;;;3.40;3.00;;;;;2.40;89.63;101216.16;5130930;27;8864;-63
2022/01/19 03:27:19;;;;;;;;;3.40;3.00;;;;;2.46;90.20;101214.25;5128246;27;8930;-63
2022/01/19 03:29:47;;;;;;;;;4.40;3.80;;;;;2.51;89.83;101207.09;5121660;27;8966;-63
2022/01/19 03:32:15;;;;;;;;;6.80;6.40;;;;;2.58;89.45;101207.81;5107713;28;9533;-63
2022/01/19 03:34:42;;;;;;;;;1.00;1.00;;;;;2.64;89.91;101197.97;5107272;28;8835;-63
2022/01/19 03:37:11;;;;;;;;;4.00;4.00;;;;;2.72;90.02;101195.16;5108276;28;8843;-68
2022/01/19 03:39:39;;;;;;;;;3.00;3.00;;;;;2.81;89.16;101195.75;5112444;27;8845;-63
2022/01/19 03:42:07;;;;;;;;;1.00;1.00;;;;;2.91;89.15;101186.72;5129392;27;9010;-60
2022/01/19 03:44:35;;;;;;;;;4.00;4.00;;;;;3.00;89.48;101185.56;5129789;27;8857;-63
2022/01/19 03:47:04;;;;;;;;;5.40;4.40;;;;;3.07;88.93;101185.34;5129113;27;8849;-63
2022/01/19 03:49:33;;;;;;;;;3.00;3.00;;;;;3.14;89.10;101180.75;5125017;27;8856;-63
2022/01/19 03:52:02;;;;;;;;;4.00;4.00;;;;;3.19;88.93;101176.22;5106099;28;8859;-63
2022/01/19 03:54:29;;;;;;;;;3.80;3.00;;;;;3.23;88.98;101177.84;5107611;28;8844;-63
2022/01/19 03:56:57;;;;;;;;;4.80;4.20;;;;;3.25;88.50;101166.38;5107449;28;8863;-63
2022/01/19 03:59:25;;;;;;;;;3.40;3.20;;;;;3.29;88.56;101161.88;5109437;27;8889;-64
2022/01/19 04:01:54;;;;;;;;;4.00;3.80;;;;;3.31;88.55;101152.16;5127823;27;8984;-63
2022/01/19 04:04:37;;;;;;;;;5.20;4.80;;;;;3.32;88.72;101154.75;5127135;27;8841;-66
2022/01/19 04:07:25;;;;;;;;;3.20;3.00;;;;;3.34;88.59;101146.81;5129119;27;8884;-63
2022/01/19 04:09:53;;;;;;;;;4.00;4.00;;;;;3.34;88.49;101150.28;5123400;28;8839;-65
2022/01/19 04:12:41;;;;;;;;;4.80;4.80;;;;;3.33;88.76;101151.19;5109109;28;8832;-63
2022/01/19 04:15:08;;;;;;;;;3.60;0.20;;;;;3.31;88.69;101131.97;5109123;28;8852;-64
2022/01/19 04:17:39;;;;;;;;;3.00;3.00;;;;;3.31;88.28;101147.75;5109572;28;9622;-63
2022/01/19 04:20:07;;;;;;;;;4.80;3.60;;;;;3.30;88.18;101143.41;5114503;27;8846;-64
2022/01/19 04:22:36;;;;;;;;;6.00;3.60;;;;;3.28;88.46;101126.81;5128439;27;8853;-63
2022/01/19 04:25:04;;;;;;;;;5.60;4.00;;;;;3.25;88.65;101123.41;5128304;27;9521;-64
2022/01/19 04:27:34;;;;;;;;;3.40;3.40;;;;;3.20;88.05;101120.94;5128043;27;8837;-64
2022/01/19 04:30:06;;;;;;;;;3.00;1.00;;;;;3.16;88.91;101103.50;5120412;28;8828;-64
2022/01/19 04:32:40;;;;;;;;;3.60;3.00;;;;;3.15;88.29;101088.63;5108358;28;8842;-61
2022/01/19 04:35:08;;;;;;;;;5.60;4.40;;;;;3.12;88.78;101079.97;5108633;28;8843;-64
2022/01/19 04:37:53;;;;;;;;;4.20;4.20;;;;;3.08;88.59;101073.94;5108229;28;8990;-64
2022/01/19 05:02:52;;;;;;;;;4.80;4.80;;;;;3.07;88.69;101037.16;5129521;27;8838;-63
2022/01/19 05:05:25;;;;;;;;;4.80;3.00;;;;;3.11;89.23;101031.75;5134128;27;8861;-62
2022/01/19 05:07:58;;;;;;;;;4.20;4.20;;;;;3.17;88.68;101020.19;5130768;27;8971;-63
2022/01/19 05:13:35;;;;;;;;;3.00;3.00;;;;;3.31;88.91;101005.66;5111848;28;8855;-64
2022/01/19 05:16:03;;;;;;;;;1.20;0.80;;;;;3.38;88.32;101004.53;5111389;28;8878;-61
2022/01/19 05:18:31;;;;;;;;;4.00;4.00;;;;;3.45;88.54;101000.78;5117097;27;8866;-66
2022/01/19 05:20:58;;;;;;;;;4.00;4.00;;;;;3.53;88.61;100992.63;5131231;27;9862;-63
2022/01/19 05:23:26;;;;;;;;;3.80;1.00;;;;;3.60;88.66;100989.72;5131269;27;8902;-61
2022/01/19 05:25:54;;;;;;;;;4.00;4.00;;;;;3.66;88.12;100988.66;5131563;27;9550;-63
2022/01/19 05:28:23;;;;;;;;;6.00;4.80;;;;;3.69;87.98;100980.66;5125642;27;8844;-64
2022/01/19 05:30:51;;;;;;;;;3.80;3.40;;;;;3.74;88.28;100992.75;5110858;28;8864;-63
2022/01/19 05:33:19;;;;;;;;;6.60;6.00;;;;;3.78;87.78;100989.06;5109579;28;8847;-63
2022/01/19 05:35:47;;;;;;;;;6.00;5.20;;;;;3.84;87.47;100984.47;5108192;28;8860;-63
2022/01/19 05:38:14;;;;;;;;;4.40;3.40;;;;;3.86;87.43;100985.25;5114052;27;8868;-63
2022/01/19 05:40:42;;;;;;;;;5.20;5.20;;;;;3.91;87.48;100985.97;5129306;27;8829;-64
2022/01/19 05:43:10;;;;;;;;;3.20;1.80;;;;;3.95;87.48;100992.00;5130153;27;8833;-61
2022/01/19 05:45:38;;;;;;;;;4.00;4.00;;;;;3.97;87.68;100993.63;5131635;27;8830;-63
2022/01/19 05:48:07;;;;;;;;;6.40;5.60;;;;;4.02;87.16;100980.28;5127457;27;8889;-62
2022/01/19 05:50:35;;;;;;;;;6.20;5.80;;;;;4.05;87.14;100977.56;5124442;27;8818;-64
2022/01/19 05:53:02;;;;;;;;;4.40;4.40;;;;;4.05;87.18;100972.28;5130648;27;8837;-64
2022/01/19 05:55:30;;;;;;;;;4.40;4.40;;;;;4.06;87.33;100960.81;5129532;27;8855;-64
2022/01/19 05:57:58;;;;;;;;;3.00;3.00;;;;;4.06;87.21;100947.66;5130666;27;9526;-63
2022/01/19 06:00:26;;;;;;;;;6.40;5.80;;;;;4.07;87.54;100944.97;5113850;27;8936;-64
2022/01/19 06:02:53;;;;;;;;;4.00;4.00;;;;;4.09;87.10;100936.97;5106512;28;8840;-61
2022/01/19 06:05:21;;;;;;;;;2.20;2.20;;;;;4.09;87.66;100918.53;5106296;28;8855;-64
2022/01/19 06:07:59;;;;;;;;;8.60;4.00;;;;;4.09;87.48;100911.50;5111269;27;8840;-64
2022/01/19 06:13:11;;;;;;;;;2.60;2.20;;;;;4.10;87.34;100912.38;5105842;28;8855;-64
2022/01/19 06:15:38;;;;;;;;;9.40;6.60;;;;;4.12;87.23;100905.25;5105334;28;8975;-62
2022/01/19 06:18:06;;;;;;;;;1.00;1.00;;;;;4.13;87.04;100906.97;5102629;28;8875;-63
2022/01/19 06:20:34;;;;;;;;;7.00;7.00;;;;;4.14;86.73;100904.28;5098497;28;9548;-64
2022/01/19 06:23:02;;;;;;;;;4.00;4.00;;;;;4.15;87.01;100903.38;5101163;28;8853;-62
2022/01/19 06:25:29;;;;;;;;;12.20;9.20;;;;;4.17;86.82;100892.75;5099051;28;9548;-61
2022/01/19 06:27:57;;;;;;;;;4.00;4.00;;;;;4.18;86.60;100894.50;5100031;28;8929;-64
2022/01/19 06:30:25;;;;;;;;;7.40;5.60;;;;;4.19;86.56;100894.41;5097740;28;8828;-62
2022/01/19 06:32:53;;;;;;;;;5.80;4.00;;;;;4.19;86.21;100883.03;5096840;28;9108;-64
2022/01/19 06:35:20;;;;;;;;;1.40;1.40;;;;;4.18;86.08;100878.69;5097130;28;8851;-62
2022/01/19 06:37:48;;;;;;;;;6.00;4.00;;;;;4.17;85.94;100887.47;5096189;28;8840;-64
2022/01/19 06:40:16;;;;;;;;;7.00;6.00;;;;;4.16;85.83;100885.75;5096341;28;8891;-67
2022/01/19 06:42:44;;;;;;;;;5.80;5.60;;;;;4.14;85.79;100885.84;5097317;28;8840;-63
2022/01/19 06:45:12;;;;;;;;;11.20;9.00;;;;;4.15;85.65;100894.59;5096545;28;9239;-65
2022/01/19 06:47:39;;;;;;;;;10.60;10.60;;;;;4.15;85.95;100891.97;5095805;28;8839;-62
2022/01/19 06:50:07;;;;;;;;;9.60;9.00;;;;;4.15;85.69;100895.47;5090366;28;8851;-64
2022/01/19 06:52:36;;;;;;;;;5.20;4.80;;;;;4.17;85.42;100898.03;5096556;28;8847;-64
2022/01/19 06:55:04;;;;;;;;;10.80;9.80;;;;;4.15;85.18;100881.41;5095733;28;8851;-63
2022/01/19 06:57:32;;;;;;;;;10.00;7.80;;;;;4.15;85.26;100876.16;5095084;28;8847;-61
2022/01/19 06:59:59;;;;;;;;;7.00;6.40;;;;;4.15;85.02;100886.69;5093022;28;8847;-63
2022/01/19 07:02:33;;;;;;;;;5.20;5.20;;;;;4.14;85.00;100883.22;5094214;28;9253;-62
2022/01/19 07:05:00;;;;;;;;;9.00;9.00;;;;;4.15;85.32;100884.06;5091775;28;8860;-64
2022/01/19 07:07:31;;;;;;;;;9.00;7.60;;;;;4.15;85.23;100884.94;5093330;28;8852;-64
2022/01/19 07:09:58;;;;;;;;;5.60;5.20;;;;;4.16;85.45;100891.03;5093075;28;9320;-63
2022/01/19 07:12:28;;;;;;;;;7.20;6.80;;;;;4.17;85.84;100893.63;5090796;28;9125;-64
2022/01/19 07:14:56;;;;;;;;;5.20;4.40;;;;;4.19;85.25;100888.31;5094932;28;9120;-62
2022/01/19 07:17:23;;;;;;;;;4.80;4.00;;;;;4.20;85.16;100887.38;5094323;28;9535;-64
2022/01/19 07:19:51;;;;;;;;;7.80;4.80;;;;;4.22;85.20;100896.94;5095918;28;8858;-62
2022/01/19 07:22:19;;;;;;;;;7.40;7.00;;;;;4.23;85.10;100892.53;5096252;28;8836;-64
2022/01/19 07:24:47;;;;;;;;;7.00;4.00;;;;;4.23;85.39;100888.13;5094636;28;8956;-63
2022/01/19 07:27:14;;;;;;;;;5.20;5.20;;;;;4.24;84.90;100900.38;5093982;28;8855;-64
2022/01/19 07:29:43;;;;;;;;;6.20;4.00;;;;;4.25;85.06;100901.25;5093512;28;9262;-63
2022/01/19 07:32:12;;;;;;;;;4.00;4.00;;;;;4.27;85.13;100896.78;5091299;28;9517;-63
2022/01/19 07:34:40;;;;;;;;;3.20;3.20;;;;;4.28;85.36;100885.31;5094808;28;9128;-63
2022/01/19 07:37:07;;;;;;;;;5.60;5.20;;;;;4.31;84.88;100882.53;5093065;28;8885;-63
2022/01/19 07:39:35;;;;;;;;;2.60;2.60;;;;;4.30;85.09;100871.16;5093542;28;8860;-64
2022/01/19 07:42:03;;;;;;;;;1.00;1.00;;;;;4.32;85.42;100876.34;5088471;28;9092;-63
2022/01/19 07:44:31;;;;;;;;;4.00;3.80;;;;;4.33;84.51;100872.81;5092335;28;8865;-63
2022/01/19 07:46:58;;;;;;;;;6.20;5.20;;;;;4.34;84.69;100870.09;5092520;28;8852;-64
2022/01/19 07:49:26;;;;;;;;;3.60;3.20;;;;;4.35;84.64;100863.06;5091161;28;8889;-64
2022/01/19 07:51:54;;;;;;;;;0.40;0.40;;;;;4.35;84.52;100855.16;5091394;28;9489;-63
2022/01/19 07:54:22;;;;;;;;;7.40;6.00;;;;;4.35;84.76;100845.44;5092334;28;8851;-64
2022/01/19 07:56:49;;;;;;;;;7.00;6.40;;;;;4.36;84.68;100857.72;5095234;28;8847;-63
2022/01/19 07:59:17;;;;;;;;;6.40;4.00;;;;;4.37;84.45;100853.31;5092407;28;8855;-63
2022/01/19 08:01:45;;;;;;;;;3.40;3.00;;;;;4.38;84.91;100852.38;5091878;28;8874;-63
2022/01/19 08:04:13;;;;;;;;;6.00;4.80;;;;;4.39;84.73;100852.31;5093394;28;8932;-63
2022/01/19 08:06:40;;;;;;;;;3.80;3.80;;;;;4.40;84.66;100850.56;5093761;28;9335;-63
2022/01/19 08:09:08;;;;;;;;;9.40;7.00;;;;;4.40;84.84;100843.50;5091563;28;8863;-63
2022/01/19 08:11:36;;;;;;;;;2.60;2.60;;;;;4.41;84.26;100837.28;5092833;28;8840;-63
2022/01/19 08:14:08;;;;;;;;;1.80;1.80;;;;;4.43;84.21;100837.25;5092335;28;8895;-62
2022/01/19 08:16:36;;;;;;;;;1.40;1.40;;;;;4.45;84.45;100835.41;5090925;28;8878;-64
2022/01/19 08:19:03;;;;;;;;;0.00;0.00;;;;;4.46;84.54;100834.47;5089991;28;8872;-62
2022/01/19 08:21:33;;;;;;;;;6.00;6.00;;;;;4.47;84.31;100823.88;5091222;28;8839;-62
2022/01/19 08:24:01;;;;;;;;;4.80;4.00;;;;;4.49;84.59;100818.53;5092547;28;9562;-63
2022/01/19 08:26:28;;;;;;;;;6.00;4.40;;;;;4.50;84.50;100813.19;5093468;28;9021;-63
2022/01/19 08:28:56;;;;;;;;;1.20;0.80;;;;;4.53;84.07;100809.56;5089719;28;8860;-63
2022/01/19 08:31:24;;;;;;;;;6.00;4.80;;;;;4.53;84.16;100807.81;5094622;28;8859;-63
2022/01/19 08:33:52;;;;;;;;;6.40;6.00;;;;;4.55;84.09;100811.22;5090180;28;9332;-64
2022/01/19 08:36:21;;;;;;;;;6.20;4.40;;;;;4.56;83.75;100809.47;5086977;28;8856;-62
2022/01/19 08:38:49;;;;;;;;;3.40;3.00;;;;;4.59;83.96;100817.22;5093534;28;8951;-63
2022/01/19 08:41:16;;;;;;;;;4.00;3.40;;;;;4.62;84.05;100815.31;5095788;28;8847;-64
2022/01/19 08:43:44;;;;;;;;;5.20;5.20;;;;;4.65;83.68;100817.00;5093990;28;8878;-63
2022/01/19 08:46:14;;;;;;;;;8.60;7.00;;;;;4.67;83.91;100821.28;5090662;28;8847;-64
2022/01/19 08:48:41;;;;;;;;;2.60;2.60;;;;;4.70;84.43;100825.53;5092302;28;8864;-63
2022/01/19 08:51:10;;;;;;;;;5.20;4.00;;;;;4.73;83.69;100836.00;5092768;28;8923;-63
2022/01/19 08:53:37;;;;;;;;;7.00;6.60;;;;;4.73;83.58;100831.56;5089242;28;9119;-64
2022/01/19 08:56:05;;;;;;;;;7.40;6.40;;;;;4.76;83.78;100835.84;5096144;28;8862;-63
2022/01/19 08:58:33;;;;;;;;;0.00;0.00;;;;;4.78;83.44;100826.13;5088350;28;9201;-63
2022/01/19 09:01:01;;;;;;;;;2.40;1.00;;;;;4.79;83.74;100820.75;5091929;28;8929;-62
2022/01/19 09:03:29;;;;;;;;;6.00;6.00;;;;;4.79;83.71;100807.56;5095028;28;8864;-62
2022/01/19 09:05:57;;;;;;;;;7.00;6.60;;;;;4.81;83.42;100802.22;5092965;28;8847;-62
2022/01/19 09:08:25;;;;;;;;;4.80;3.20;;;;;4.82;83.35;100814.50;5094481;28;9088;-63
2022/01/19 09:10:57;;;;;;;;;3.00;3.00;;;;;4.84;83.57;100815.28;5093222;28;9481;-63
2022/01/19 09:13:25;;;;;;;;;6.60;6.00;;;;;4.85;83.71;100806.44;5093703;28;8910;-61
2022/01/19 09:15:54;;;;;;;;;4.40;4.40;;;;;4.86;83.25;100801.09;5095928;28;8852;-63
2022/01/19 09:18:22;;;;;;;;;4.80;4.00;;;;;4.87;83.42;100786.13;5095199;28;8859;-61
2022/01/19 09:20:49;;;;;;;;;6.00;4.00;;;;;4.87;83.17;100773.78;5100151;28;8886;-64
2022/01/19 09:23:17;;;;;;;;;5.00;5.00;;;;;4.88;83.28;100772.03;5093398;28;9077;-64
2022/01/19 09:25:45;;;;;;;;;6.20;6.20;;;;;4.88;83.43;100764.94;5094478;28;8844;-64
2022/01/19 09:28:13;;;;;;;;;4.40;4.40;;;;;4.87;83.39;100754.47;5092479;28;8990;-64
2022/01/19 09:30:42;;;;;;;;;8.60;7.80;;;;;4.87;82.83;100762.41;5094284;28;8862;-63
2022/01/19 09:33:11;;;;;;;;;5.80;4.80;;;;;4.86;83.13;100766.81;5094512;28;9186;-64
2022/01/19 09:35:53;;;;;;;;;3.00;3.00;;;;;4.85;82.58;100759.81;5094338;28;8827;-62
2022/01/19 09:38:21;;;;;;;;;8.20;7.40;;;;;4.86;82.92;100755.41;5092543;28;8916;-64
2022/01/19 09:40:48;;;;;;;;;7.00;6.00;;;;;4.86;82.93;100758.88;5093470;28;8973;-62
2022/01/19 09:43:17;;;;;;;;;3.20;3.20;;;;;4.88;82.35;100750.91;5092193;28;8847;-65
2022/01/19 09:45:45;;;;;;;;;1.40;1.40;;;;;4.87;82.65;100762.41;5089721;28;8963;-64
2022/01/19 09:48:13;;;;;;;;;6.00;6.00;;;;;4.88;82.52;100745.63;5091825;28;8872;-63
2022/01/19 09:50:41;;;;;;;;;7.40;7.00;;;;;4.90;82.34;100751.69;5091690;28;8994;-63
2022/01/19 09:53:09;;;;;;;;;4.80;3.60;;;;;4.89;82.55;100742.94;5096354;28;8848;-62
2022/01/19 09:55:40;;;;;;;;;6.60;6.20;;;;;4.88;82.66;100735.09;5094093;28;8863;-64
2022/01/19 09:58:08;;;;;;;;;5.40;5.20;;;;;4.90;82.82;100741.13;5089269;28;9421;-63
2022/01/19 10:00:37;;;;;;;;;10.20;7.00;;;;;4.90;82.52;100734.09;5092663;28;8908;-63
2022/01/19 10:03:08;;;;;;;;;12.20;10.60;;;;;4.89;82.31;100744.72;5100875;28;8852;-64
2022/01/19 10:05:36;;;;;;;;;3.40;3.40;;;;;4.88;82.20;100729.81;5102371;28;9469;-62
2022/01/19 10:08:06;;;;;;;;;3.60;2.20;;;;;4.85;82.57;100743.97;5101228;28;8852;-63
2022/01/19 10:10:34;;;;;;;;;5.20;4.40;;;;;4.84;82.40;100734.34;5102153;28;8855;-63
2022/01/19 10:18:43;;;;;;;;;7.80;7.80;;;;;4.82;82.43;100730.94;5096596;28;8888;-62
2022/01/19 10:21:12;;;;;;;;;6.60;5.60;;;;;4.82;82.35;100716.88;5102372;28;8982;-64
2022/01/19 10:23:40;;;;;;;;;7.40;7.40;;;;;4.82;82.12;100714.25;5100773;28;8855;-62
2022/01/19 10:26:09;;;;;;;;;3.60;3.20;;;;;4.80;82.22;100706.38;5101052;28;8875;-63
2022/01/19 10:28:36;;;;;;;;;9.80;7.20;;;;;4.82;82.12;100703.69;5101554;28;8960;-64
2022/01/19 10:31:04;;;;;;;;;3.00;3.00;;;;;4.81;82.16;100694.94;5102671;28;9350;-64
2022/01/19 10:33:32;;;;;;;;;5.20;4.00;;;;;4.80;82.41;100681.81;5098805;28;8901;-63
2022/01/19 10:36:02;;;;;;;;;1.40;1.00;;;;;4.80;82.62;100690.56;5098842;28;8860;-64
2022/01/19 10:38:32;;;;;;;;;6.00;4.40;;;;;4.80;82.10;100689.72;5100444;28;8886;-64
2022/01/19 10:41:02;;;;;;;;;3.00;3.00;;;;;4.78;82.54;100683.66;5100820;28;9253;-64
2022/01/19 10:43:30;;;;;;;;;7.00;7.00;;;;;4.77;82.71;100679.28;5100911;28;8843;-64
2022/01/19 10:45:58;;;;;;;;;7.80;7.40;;;;;4.78;82.65;100675.75;5100743;28;8859;-63
2022/01/19 10:48:25;;;;;;;;;7.00;5.60;;;;;4.75;82.47;100675.88;5101173;28;9525;-62
2022/01/19 10:50:53;;;;;;;;;9.40;9.20;;;;;4.74;82.59;100674.16;5101666;28;8864;-64
2022/01/19 10:53:21;;;;;;;;;8.60;8.60;;;;;4.72;82.28;100670.72;5101660;28;8879;-64
2022/01/19 10:55:49;;;;;;;;;3.40;3.40;;;;;4.71;83.03;100679.56;5101522;28;8851;-63
2022/01/19 10:58:16;;;;;;;;;9.40;9.00;;;;;4.69;82.18;100678.75;5100984;28;8979;-64
2022/01/19 11:00:44;;;;;;;;;9.40;8.20;;;;;4.67;82.89;100677.97;5098231;28;8862;-64
2022/01/19 11:03:12;;;;;;;;;9.00;7.00;;;;;4.64;82.66;100676.34;5098296;28;8972;-64
2022/01/19 11:05:40;;;;;;;;;7.40;6.20;;;;;4.63;83.10;100679.91;5100629;28;8864;-61
2022/01/19 11:08:08;;;;;;;;;1.00;0.00;;;;;4.62;83.00;100674.69;5098404;28;8848;-62
2022/01/19 11:10:36;;;;;;;;;8.00;7.40;;;;;4.59;82.86;100675.69;5099109;28;9295;-64
2022/01/19 11:13:06;;;;;;;;;10.20;9.40;;;;;4.58;82.76;100667.84;5074628;28;9245;-64
2022/01/19 11:15:34;;;;;;;;;7.00;7.00;;;;;4.58;82.98;100659.94;5076436;28;8855;-63
2022/01/19 11:18:06;;;;;;;;;8.60;6.20;;;;;4.57;82.35;100660.88;5073459;28;8929;-62
2022/01/19 11:20:34;;;;;;;;;6.00;6.00;;;;;4.57;82.63;100655.59;5082582;28;9018;-62
2022/01/19 11:23:02;;;;;;;;;11.00;9.00;;;;;4.58;82.50;100650.22;5078416;28;9162;-62
2022/01/19 11:25:31;;;;;;;;;0.00;0.00;;;;;4.59;82.78;100644.06;5074514;28;8848;-62
2022/01/19 11:28:13;;;;;;;;;8.60;8.60;;;;;4.61;82.85;100646.59;5076906;28;9286;-63
2022/01/19 11:30:40;;;;;;;;;8.60;7.80;;;;;4.61;83.03;100630.78;5076566;28;8843;-64
2022/01/19 11:33:08;;;;;;;;;10.80;9.20;;;;;4.62;82.66;100625.44;5077066;28;9841;-63
2022/01/19 11:35:39;;;;;;;;;7.20;6.40;;;;;4.65;82.74;100632.38;5079352;28;8859;-64
2022/01/19 11:38:06;;;;;;;;;16.80;10.60;;;;;4.66;82.79;100616.50;5076853;28;8878;-62
2022/01/19 11:40:34;;;;;;;;;11.60;11.60;;;;;4.66;82.79;100605.94;5087125;28;9171;-64
2022/01/19 11:43:04;;;;;;;;;6.80;6.80;;;;;4.68;82.65;100596.16;5100161;28;8966;-61
2022/01/19 11:45:32;;;;;;;;;12.80;12.00;;;;;4.70;82.49;100598.72;5097685;28;8851;-62
2022/01/19 11:48:00;;;;;;;;;6.00;6.00;;;;;4.73;82.63;100580.97;5099244;28;8892;-62
2022/01/19 11:50:29;;;;;;;;;9.00;9.00;;;;;4.75;82.16;100578.25;5096511;28;9525;-61
2022/01/19 11:53:09;;;;;;;;;7.40;7.40;;;;;4.75;81.78;100570.34;5098332;28;9841;-61
2022/01/19 11:55:37;;;;;;;;;8.60;8.60;;;;;4.76;81.96;100559.75;5096304;28;9159;-64
2022/01/19 11:58:05;;;;;;;;;13.00;11.60;;;;;4.78;81.84;100552.59;5096806;28;9030;-62
2022/01/19 12:00:33;;;;;;;;;7.40;7.40;;;;;4.79;82.19;100543.75;5097185;28;8871;-61
2022/01/19 12:03:05;;;;;;;;;6.80;6.80;;;;;4.81;81.71;100544.56;5100684;28;8874;-63
2022/01/19 12:05:53;;;;;;;;;10.80;9.40;;;;;4.85;81.55;100534.69;5101325;28;8898;-60
2022/01/19 12:08:27;;;;;;;;;11.20;11.00;;;;;4.88;81.58;100537.22;5101107;28;8879;-63
2022/01/19 12:10:57;;;;;;;;;9.80;9.00;;;;;4.87;81.50;100532.88;5100120;28;8908;-64
2022/01/19 12:13:29;;;;;;;;;10.40;9.00;;;;;4.87;81.49;100525.78;5101491;28;8859;-62
2022/01/19 12:16:00;;;;;;;;;1.00;0.00;;;;;4.88;81.55;100518.75;5104896;28;8882;-63
2022/01/19 12:18:28;;;;;;;;;10.60;9.60;;;;;4.88;81.09;100511.66;5092392;28;8868;-62
2022/01/19 12:20:55;;;;;;;;;9.60;7.80;;;;;4.87;81.44;100514.41;5094972;28;8955;-63
2022/01/19 12:23:23;;;;;;;;;10.40;10.40;;;;;4.88;81.39;100513.47;5095009;28;9590;-62
2022/01/19 12:25:51;;;;;;;;;3.40;2.80;;;;;4.86;81.54;100510.88;5094545;28;8836;-63
2022/01/19 12:28:18;;;;;;;;;9.00;7.60;;;;;4.86;81.22;100500.34;5093074;28;8855;-63
2022/01/19 12:30:47;;;;;;;;;6.20;5.60;;;;;4.87;80.88;100495.94;5095758;28;8855;-64
2022/01/19 12:33:15;;;;;;;;;8.40;4.00;;;;;4.88;81.23;100492.34;5100107;28;8851;-64
2022/01/19 12:35:43;;;;;;;;;7.00;6.40;;;;;4.88;81.15;100473.88;5090770;28;8855;-67
2022/01/19 12:38:15;;;;;;;;;8.40;8.40;;;;;4.90;81.19;100470.25;5095008;28;9136;-63
2022/01/19 12:40:42;;;;;;;;;10.40;8.20;;;;;4.90;81.09;100467.63;5097344;28;8864;-63
2022/01/19 12:43:10;;;;;;;;;5.80;5.20;;;;;4.91;81.42;100461.41;5096839;28;8836;-64
2022/01/19 12:45:43;;;;;;;;;7.00;6.40;;;;;4.92;81.62;100464.88;5096551;28;8867;-62
2022/01/19 12:48:11;;;;;;;;;7.00;6.60;;;;;4.92;81.29;100454.31;5096808;28;8936;-63
2022/01/19 12:50:40;;;;;;;;;4.40;4.00;;;;;4.92;80.83;100456.97;5098805;28;9151;-64
2022/01/19 12:53:08;;;;;;;;;4.80;4.80;;;;;4.91;81.03;100449.97;5104782;28;8855;-64
2022/01/19 12:55:40;;;;;;;;;7.00;7.00;;;;;4.89;81.32;100447.44;5094092;28;8852;-64
2022/01/19 12:58:08;;;;;;;;;4.00;4.00;;;;;4.89;81.33;100446.56;5105694;28;8873;-62
2022/01/19 13:00:36;;;;;;;;;6.00;4.40;;;;;4.89;81.52;100446.56;5104009;28;8839;-63